createdAt,value
2019-03-22T00:02:57.258Z,16.75
2019-03-22T00:05:58.505Z,18.37
2019-03-22T00:08:59.752Z,15.08
2019-03-22T00:12:00.772Z,13.03
2019-03-22T00:15:01.737Z,13.32
2019-03-22T00:18:02.989Z,15.23
2019-03-22T00:21:03.981Z,13.70
2019-03-22T00:24:04.970Z,14.75
2019-03-22T00:27:15.857Z,16.60
2019-03-22T00:30:07.465Z,17.15
2019-03-22T00:33:08.714Z,16.35
2019-03-22T00:36:09.961Z,13.10
2019-03-22T00:39:10.957Z,13.53
2019-03-22T00:42:12.457Z,12.40
2019-03-22T00:45:14.472Z,18.12
2019-03-22T00:48:16.241Z,13.55
2019-03-22T00:51:17.737Z,13.08
2019-03-22T00:54:18.728Z,16.40
2019-03-22T00:57:28.546Z,15.53
2019-03-22T01:00:22.252Z,12.82
2019-03-22T01:03:24.264Z,19.73
2019-03-22T01:06:25.513Z,13.38
2019-03-22T01:09:27.787Z,12.13
2019-03-22T01:12:29.033Z,13.22
2019-03-22T01:15:30.280Z,10.55
2019-03-22T01:18:31.783Z,15.03
2019-03-22T01:21:40.460Z,12.23
2019-03-22T01:24:41.709Z,14.25
2019-03-22T01:27:45.768Z,11.73
2019-03-22T01:30:47.019Z,12.98
2019-03-22T01:33:48.263Z,10.15
2019-03-22T01:36:49.260Z,10.00
2019-03-22T01:39:53.838Z,26.25
2019-03-22T01:42:54.826Z,30.30
2019-03-22T01:45:56.074Z,30.23
2019-03-22T01:48:57.320Z,12.90
2019-03-22T01:52:01.647Z,10.10
2019-03-22T01:55:02.629Z,9.88
2019-03-22T01:57:54.001Z,10.18
2019-03-22T02:00:53.666Z,27.35
2019-03-22T02:03:54.601Z,13.60
2019-03-22T02:06:51.948Z,30.95
2019-03-22T02:09:53.002Z,33.18
2019-03-22T02:13:01.676Z,29.80
2019-03-22T02:16:05.997Z,17.00
2019-03-22T02:19:03.406Z,27.30
2019-03-22T02:22:05.160Z,21.30
2019-03-22T02:25:09.483Z,32.65
2019-03-22T02:28:10.474Z,27.70
2019-03-22T02:31:11.211Z,31.80
2019-03-22T02:34:12.207Z,34.75
2019-03-22T02:37:13.453Z,24.98
2019-03-22T02:40:15.490Z,34.18
2019-03-22T02:43:16.721Z,33.92
2019-03-22T02:46:18.249Z,26.10
2019-03-22T02:49:19.214Z,28.62
2019-03-22T02:52:21.486Z,34.35
2019-03-22T02:55:22.479Z,45.10
2019-03-22T02:58:19.677Z,33.80
2019-03-22T03:01:09.620Z,33.53
2019-03-22T03:04:13.025Z,34.92
2019-03-22T03:07:12.369Z,36.53
2019-03-22T03:10:13.612Z,38.50
2019-03-22T03:13:15.113Z,17.77
2019-03-22T03:16:16.112Z,38.00
2019-03-22T03:19:18.122Z,22.20
2019-03-22T03:22:20.403Z,28.98
2019-03-22T03:25:21.386Z,25.85
2019-03-22T03:28:17.781Z,8.53
2019-03-22T03:31:18.759Z,7.47
2019-03-22T03:34:27.442Z,8.58
2019-03-22T03:37:28.442Z,34.08
2019-03-22T03:40:29.417Z,13.13
2019-03-22T03:43:30.409Z,14.43
2019-03-22T03:46:31.408Z,11.03
2019-03-22T03:49:32.393Z,11.28
2019-03-22T03:52:39.407Z,9.08
2019-03-22T03:55:37.202Z,13.98
2019-03-22T03:58:51.747Z,18.48
2019-03-22T04:01:39.176Z,21.05
2019-03-22T04:04:40.173Z,34.13
2019-03-22T04:07:41.166Z,39.58
2019-03-22T04:10:42.409Z,35.88
2019-03-22T04:13:50.835Z,44.08
2019-03-22T04:16:52.338Z,36.35
2019-03-22T04:19:53.607Z,34.48
2019-03-22T04:22:55.603Z,35.58
2019-03-22T04:26:04.013Z,37.50
2019-03-22T04:29:07.921Z,37.40
2019-03-22T04:32:05.993Z,23.22
2019-03-22T04:35:03.187Z,16.73
2019-03-22T04:38:04.651Z,38.83
2019-03-22T04:41:05.641Z,12.98
2019-03-22T04:44:06.632Z,16.42
2019-03-22T04:47:08.141Z,32.93
2019-03-22T04:50:09.128Z,18.07
2019-03-22T04:53:10.120Z,17.57
2019-03-22T04:56:11.111Z,13.30
2019-03-22T04:59:18.840Z,22.77
2019-03-22T05:02:14.377Z,30.52
2019-03-22T05:05:15.115Z,20.30
2019-03-22T05:08:16.113Z,21.62
2019-03-22T05:11:13.797Z,23.80
2019-03-22T05:14:17.834Z,28.17
2019-03-22T05:17:19.339Z,12.43
2019-03-22T05:20:22.376Z,15.45
2019-03-22T05:23:30.801Z,13.68
2019-03-22T05:26:32.808Z,15.13
2019-03-22T05:29:31.127Z,14.30
2019-03-22T05:32:38.121Z,15.90
2019-03-22T05:35:39.117Z,33.18
2019-03-22T05:38:40.367Z,18.55
2019-03-22T05:41:41.352Z,32.95
2019-03-22T05:44:42.344Z,34.27
2019-03-22T05:47:43.593Z,31.48
2019-03-22T05:50:41.908Z,14.55
2019-03-22T05:53:42.761Z,18.87
2019-03-22T05:56:44.526Z,29.92
2019-03-22T05:59:45.523Z,28.30
2019-03-22T06:02:47.015Z,10.43
2019-03-22T06:05:48.007Z,21.30
2019-03-22T06:08:50.283Z,37.30
2019-03-22T06:11:48.459Z,32.83
2019-03-22T06:14:50.223Z,19.87
2019-03-22T06:17:51.871Z,36.35
2019-03-22T06:20:52.969Z,42.73
2019-03-22T06:23:53.966Z,27.35
2019-03-22T06:26:55.209Z,39.40
2019-03-22T06:29:56.970Z,32.55
2019-03-22T06:32:57.968Z,35.75
2019-03-22T06:35:47.691Z,34.35
2019-03-22T06:38:48.939Z,40.80
2019-03-22T06:41:49.932Z,48.05
2019-03-22T06:44:50.924Z,27.82
2019-03-22T06:47:52.170Z,19.17
2019-03-22T06:50:53.421Z,14.78
2019-03-22T06:53:54.424Z,41.50
2019-03-22T06:56:47.720Z,15.72
2019-03-22T06:59:52.042Z,13.58
2019-03-22T07:02:53.033Z,21.70
2019-03-22T07:05:54.030Z,43.70
2019-03-22T07:08:47.338Z,14.90
2019-03-22T07:11:48.587Z,14.03
2019-03-22T07:14:49.833Z,19.17
2019-03-22T07:17:51.087Z,16.90
2019-03-22T07:20:52.077Z,26.90
2019-03-22T07:23:53.322Z,49.03
2019-03-22T07:26:54.373Z,19.73
2019-03-22T07:29:58.890Z,18.02
2019-03-22T07:33:02.442Z,24.25
2019-03-22T07:35:59.593Z,49.83
2019-03-22T07:39:10.054Z,22.77
2019-03-22T07:42:11.049Z,19.05
2019-03-22T07:45:12.297Z,18.52
2019-03-22T07:48:13.806Z,40.78
2019-03-22T07:51:16.081Z,17.62
2019-03-22T07:54:17.585Z,22.80
2019-03-22T07:57:20.109Z,35.63
2019-03-22T08:00:30.250Z,33.85
2019-03-22T08:03:22.351Z,22.17
2019-03-22T08:06:23.594Z,21.55
2019-03-22T08:09:24.841Z,22.60
2019-03-22T08:12:26.100Z,29.60
2019-03-22T08:15:19.658Z,37.98
2019-03-22T08:18:20.651Z,46.58
2019-03-22T08:21:35.466Z,46.63
2019-03-22T08:24:36.985Z,44.63
2019-03-22T08:27:34.304Z,23.05
2019-03-22T08:30:43.103Z,21.20
2019-03-22T08:33:37.387Z,22.65
2019-03-22T08:36:38.632Z,22.52
2019-03-22T08:39:40.907Z,22.52
2019-03-22T08:42:42.410Z,25.92
2019-03-22T08:45:43.404Z,22.67
2019-03-22T08:48:44.678Z,22.35
2019-03-22T08:51:49.699Z,27.75
2019-03-22T08:54:49.452Z,26.15
2019-03-22T08:57:50.696Z,25.10
2019-03-22T09:00:57.550Z,26.80
2019-03-22T09:03:49.610Z,30.15
2019-03-22T09:06:50.918Z,36.03
2019-03-22T09:09:51.888Z,30.62
2019-03-22T09:12:52.862Z,30.75
2019-03-22T09:16:04.604Z,29.92
2019-03-22T09:19:05.576Z,25.17
2019-03-22T09:22:06.573Z,25.08
2019-03-22T09:25:09.098Z,28.38
2019-03-22T09:28:10.581Z,29.05
2019-03-22T09:31:12.040Z,32.75
2019-03-22T09:34:12.842Z,26.20
2019-03-22T09:37:10.095Z,28.70
2019-03-22T09:40:11.281Z,34.35
2019-03-22T09:43:12.793Z,37.98
2019-03-22T09:46:06.604Z,32.48
2019-03-22T09:49:07.562Z,36.90
2019-03-22T09:52:16.291Z,37.17
2019-03-22T09:55:17.585Z,38.17
2019-03-22T09:58:18.475Z,38.88
2019-03-22T10:01:23.886Z,55.33
2019-03-22T10:04:20.970Z,37.13
2019-03-22T10:07:22.241Z,41.02
2019-03-22T10:10:38.899Z,45.05
2019-03-22T10:13:40.086Z,40.15
2019-03-22T10:16:41.108Z,38.28
2019-03-22T10:19:42.363Z,32.13
2019-03-22T10:22:46.890Z,35.70
2019-03-22T10:25:48.200Z,34.73
2019-03-22T10:28:49.405Z,39.55
2019-03-22T10:31:50.677Z,32.35
2019-03-22T10:35:01.897Z,40.05
2019-03-22T10:38:00.484Z,42.95
2019-03-22T10:41:05.415Z,33.18
2019-03-22T10:44:06.640Z,33.38
2019-03-22T10:47:07.893Z,35.43
2019-03-22T10:50:08.877Z,34.15
2019-03-22T10:53:02.442Z,38.98
2019-03-22T10:56:05.738Z,30.45
2019-03-22T10:59:09.547Z,34.60
2019-03-22T11:02:03.998Z,36.40
2019-03-22T11:05:04.361Z,29.72
2019-03-22T11:08:02.016Z,26.55
2019-03-22T11:11:03.023Z,42.23
2019-03-22T11:14:04.269Z,28.05
2019-03-22T11:16:54.007Z,24.27
2019-03-22T11:19:57.397Z,38.78
2019-03-22T11:22:56.232Z,27.13
2019-03-22T11:26:06.697Z,38.90
2019-03-22T11:29:07.691Z,28.15
2019-03-22T11:32:12.277Z,30.80
2019-03-22T11:35:06.350Z,32.10
2019-03-22T11:38:07.341Z,29.18
2019-03-22T11:41:15.753Z,27.67
2019-03-22T11:44:16.764Z,25.10
2019-03-22T11:47:17.993Z,32.70
2019-03-22T11:50:19.240Z,35.03
2019-03-22T11:53:21.513Z,25.17
2019-03-22T11:56:17.003Z,26.23
2019-03-22T12:00:13.418Z,26.30
2019-03-22T12:03:15.434Z,29.07
2019-03-22T12:06:16.427Z,30.40
2019-03-22T12:09:18.441Z,35.98
2019-03-22T12:12:19.951Z,24.57
2019-03-22T12:15:20.944Z,22.60
2019-03-22T12:18:22.185Z,22.07
2019-03-22T12:21:23.176Z,22.55
2019-03-22T12:24:24.169Z,24.00
2019-03-22T12:27:25.424Z,34.40
2019-03-22T12:30:33.068Z,24.00
2019-03-22T12:33:34.067Z,26.87
2019-03-22T12:36:35.308Z,31.55
2019-03-22T12:39:37.837Z,32.45
2019-03-22T12:42:38.826Z,17.48
2019-03-22T12:45:36.496Z,19.82
2019-03-22T12:48:37.480Z,19.37
2019-03-22T12:51:38.216Z,23.30
2019-03-22T12:54:39.209Z,22.13
2019-03-22T12:57:36.617Z,26.23
2019-03-22T13:00:31.467Z,25.57
2019-03-22T13:03:32.458Z,25.05
2019-03-22T13:06:33.448Z,19.80
2019-03-22T13:09:37.257Z,24.35
2019-03-22T13:12:38.250Z,16.73
2019-03-22T13:15:39.241Z,24.12
2019-03-22T13:18:49.868Z,17.85
2019-03-22T13:21:41.994Z,22.40
2019-03-22T13:24:42.988Z,18.92
2019-03-22T13:27:43.976Z,13.55
2019-03-22T13:30:46.251Z,22.65
2019-03-22T13:33:47.504Z,12.37
2019-03-22T13:36:49.512Z,16.15
2019-03-22T13:39:51.783Z,16.75
2019-03-22T13:42:52.776Z,20.25
2019-03-22T13:45:54.027Z,13.83
2019-03-22T13:48:55.271Z,12.98
2019-03-22T13:51:52.747Z,10.75
2019-03-22T13:54:53.675Z,10.88
2019-03-22T13:57:55.177Z,14.00
2019-03-22T14:00:56.171Z,24.02
2019-03-22T14:03:57.163Z,15.70
2019-03-22T14:06:58.155Z,19.23
2019-03-22T14:10:02.422Z,12.40
2019-03-22T14:13:09.608Z,13.20
2019-03-22T14:16:10.855Z,14.70
2019-03-22T14:19:11.880Z,17.65
2019-03-22T14:22:13.097Z,23.07
2019-03-22T14:25:06.673Z,15.63
2019-03-22T14:28:00.235Z,10.45
2019-03-22T14:31:12.234Z,19.10
2019-03-22T14:34:13.224Z,15.75
2019-03-22T14:37:10.547Z,12.65
2019-03-22T14:40:15.622Z,26.48
2019-03-22T14:43:21.320Z,11.40
2019-03-22T14:46:22.829Z,11.90
2019-03-22T14:49:23.816Z,28.60
2019-03-22T14:52:25.831Z,22.87
2019-03-22T14:55:19.401Z,21.07
2019-03-22T14:58:25.002Z,27.13
2019-03-22T15:01:33.418Z,23.95
2019-03-22T15:04:41.577Z,13.88
2019-03-22T15:07:42.572Z,15.00
2019-03-22T15:10:45.868Z,32.15
2019-03-22T15:13:53.257Z,11.15
2019-03-22T15:17:06.547Z,10.40
2019-03-22T15:20:18.795Z,13.60
2019-03-22T15:23:40.266Z,19.55
2019-03-22T15:26:52.525Z,20.97
2019-03-22T15:30:05.032Z,13.78
2019-03-22T15:33:34.544Z,15.93
2019-03-22T15:36:43.367Z,17.35
2019-03-22T15:39:56.908Z,14.70
2019-03-22T15:42:50.473Z,17.55
2019-03-22T15:45:51.472Z,10.80
2019-03-22T15:48:45.035Z,18.60
2019-03-22T15:51:48.953Z,19.82
2019-03-22T15:54:50.349Z,14.45
2019-03-22T15:57:52.107Z,16.73
2019-03-22T16:00:53.096Z,16.62
2019-03-22T16:03:54.345Z,21.27
2019-03-22T16:06:55.592Z,10.35
2019-03-22T16:09:56.588Z,19.32
2019-03-22T16:12:58.605Z,19.15
2019-03-22T16:15:59.850Z,11.25
2019-03-22T16:19:01.101Z,12.25
2019-03-22T16:22:03.369Z,12.40
2019-03-22T16:25:04.617Z,16.35
2019-03-22T16:28:05.612Z,22.73
2019-03-22T16:31:06.857Z,13.80
2019-03-22T16:34:08.873Z,13.50
2019-03-22T16:37:09.869Z,13.10
2019-03-22T16:40:10.863Z,13.10
2019-03-22T16:43:12.106Z,18.27
2019-03-22T16:46:14.209Z,10.05
2019-03-22T16:49:14.604Z,14.58
2019-03-22T16:52:16.106Z,19.67
2019-03-22T16:55:17.353Z,17.80
2019-03-22T16:58:22.954Z,12.50
2019-03-22T17:01:24.201Z,14.25
2019-03-22T17:04:25.211Z,15.55
2019-03-22T17:07:26.700Z,25.30
2019-03-22T17:10:28.973Z,22.58
2019-03-22T17:13:18.700Z,9.55
2019-03-22T17:16:20.202Z,16.17
2019-03-22T17:19:21.194Z,17.15
2019-03-22T17:22:22.441Z,20.68
2019-03-22T17:25:23.689Z,15.72
2019-03-22T17:28:25.194Z,24.15
2019-03-22T17:31:26.449Z,13.08
2019-03-22T17:34:28.456Z,10.50
2019-03-22T17:37:25.960Z,14.05
2019-03-22T17:40:19.439Z,28.17
2019-03-22T17:43:20.683Z,14.85
2019-03-22T17:46:22.959Z,18.05
2019-03-22T17:49:26.212Z,17.27
2019-03-22T17:52:28.263Z,18.17
2019-03-22T17:55:22.091Z,22.32
2019-03-22T17:58:23.080Z,23.73
2019-03-22T18:01:16.648Z,13.10
2019-03-22T18:04:24.291Z,7.22
2019-03-22T18:07:24.370Z,17.65
2019-03-22T18:10:24.236Z,15.88
2019-03-22T18:13:25.236Z,15.13
2019-03-22T18:16:28.265Z,15.58
2019-03-22T18:19:24.394Z,18.98
2019-03-22T18:22:25.900Z,14.93
2019-03-22T18:25:26.896Z,15.68
2019-03-22T18:28:28.392Z,9.58
2019-03-22T18:31:29.390Z,12.95
2019-03-22T18:34:34.366Z,14.47
2019-03-22T18:37:27.784Z,16.97
2019-03-22T18:40:28.776Z,17.42
2019-03-22T18:43:29.776Z,19.65
2019-03-22T18:46:31.022Z,17.92
2019-03-22T18:49:32.009Z,19.35
2019-03-22T18:52:25.330Z,18.82
2019-03-22T18:55:18.890Z,20.15
2019-03-22T18:58:20.905Z,18.80
2019-03-22T19:01:22.920Z,18.95
2019-03-22T19:04:24.168Z,19.62
2019-03-22T19:07:25.426Z,17.02
2019-03-22T19:10:26.667Z,18.40
2019-03-22T19:13:30.337Z,22.20
2019-03-22T19:16:24.040Z,19.62
2019-03-22T19:19:21.525Z,17.55
2019-03-22T19:22:23.979Z,21.60
2019-03-22T19:25:25.233Z,17.73
2019-03-22T19:28:26.727Z,17.32
2019-03-22T19:31:28.232Z,14.87
2019-03-22T19:34:29.482Z,18.52
2019-03-22T19:37:30.729Z,20.05
2019-03-22T19:40:32.232Z,19.92
2019-03-22T19:43:33.485Z,17.85
2019-03-22T19:46:23.277Z,21.02
2019-03-22T19:49:24.710Z,21.27
2019-03-22T19:52:25.964Z,17.35
2019-03-22T19:55:27.211Z,17.87
2019-03-22T19:58:28.467Z,18.23
2019-03-22T20:01:30.480Z,24.82
2019-03-22T20:04:31.722Z,13.83
2019-03-22T20:07:32.972Z,19.07
2019-03-22T20:10:26.535Z,7.78
2019-03-22T20:13:27.784Z,18.37
2019-03-22T20:16:29.034Z,24.27
2019-03-22T20:19:30.793Z,21.23
2019-03-22T20:22:33.068Z,11.80
2019-03-22T20:25:34.056Z,19.27
2019-03-22T20:28:35.306Z,22.30
2019-03-22T20:31:28.622Z,27.13
2019-03-22T20:34:29.609Z,24.72
2019-03-22T20:37:32.649Z,26.82
2019-03-22T20:40:22.738Z,26.15
2019-03-22T20:43:25.421Z,15.55
2019-03-22T20:46:26.668Z,24.87
2019-03-22T20:49:20.496Z,19.80
2019-03-22T20:52:22.507Z,28.47
2019-03-22T20:55:24.013Z,23.67
2019-03-22T20:58:25.258Z,15.18
2019-03-22T21:01:26.505Z,24.65
2019-03-22T21:04:28.782Z,13.95
2019-03-22T21:07:18.775Z,18.32
2019-03-22T21:10:16.306Z,25.95
2019-03-22T21:13:18.187Z,25.97
2019-03-22T21:16:19.435Z,28.12
2019-03-22T21:19:20.427Z,25.10
2019-03-22T21:22:21.685Z,25.32
2019-03-22T21:25:22.930Z,28.25
2019-03-22T21:28:23.912Z,28.20
2019-03-22T21:31:25.162Z,23.07
2019-03-22T21:34:26.920Z,25.32
2019-03-22T21:37:28.943Z,32.42
2019-03-22T21:40:30.697Z,28.45
2019-03-22T21:43:31.951Z,31.45
2019-03-22T21:46:33.200Z,26.05
2019-03-22T21:49:34.442Z,29.00
2019-03-22T21:52:35.957Z,30.55
2019-03-22T21:55:36.937Z,40.88
2019-03-22T21:58:35.334Z,32.60
2019-03-22T22:01:32.522Z,30.60
2019-03-22T22:04:33.769Z,32.85
2019-03-22T22:07:34.763Z,31.23
2019-03-22T22:10:28.857Z,33.10
2019-03-22T22:13:29.841Z,29.25
2019-03-22T22:16:31.081Z,26.52
2019-03-22T22:19:32.330Z,28.30
2019-03-22T22:22:33.834Z,28.50
2019-03-22T22:25:27.917Z,31.07
2019-03-22T22:28:29.162Z,32.17
2019-03-22T22:31:32.969Z,38.33
2019-03-22T22:34:34.487Z,38.30
2019-03-22T22:37:27.786Z,33.38
2019-03-22T22:40:29.036Z,13.43
2019-03-22T22:43:30.285Z,34.23
2019-03-22T22:46:31.785Z,35.68
2019-03-22T22:49:33.036Z,32.88
2019-03-22T22:52:34.280Z,32.10
2019-03-22T22:55:27.849Z,35.35
2019-03-22T23:01:42.632Z,36.08
2019-03-22T23:04:43.885Z,35.58
2019-03-22T23:07:47.306Z,31.07
2019-03-22T23:10:54.827Z,30.95
2019-03-22T23:13:56.073Z,34.67
2019-03-22T23:16:57.331Z,25.35
2019-03-22T23:19:58.357Z,32.38
2019-03-22T23:22:59.308Z,28.23
2019-03-22T23:26:10.795Z,28.10
2019-03-22T23:29:11.783Z,15.28
2019-03-22T23:32:12.778Z,13.15
2019-03-22T23:35:15.561Z,29.57
2019-03-22T23:38:16.553Z,26.02
2019-03-22T23:41:17.802Z,37.75
2019-03-22T23:44:19.828Z,32.60
2019-03-22T23:47:20.818Z,33.67
2019-03-22T23:50:22.069Z,30.60
2019-03-22T23:53:24.597Z,27.58
2019-03-22T23:56:18.409Z,22.50
2019-03-22T23:59:19.408Z,25.90
